Time;durP1;ratioP1;P1;durP2;ratioP2;P2;SDS_P1;SDS_P2;PMS_P1;PMS_P2;Temp;Humidity;BMP_temperature;BMP_pressure;BME280_temperature;BME280_humidity;BME280_pressure;Samples;Min_cycle;Max_cycle;Signal;HPM_P1;HPM_P2
2023/05/02 00:01:48;;;;;;;19.80;17.80;;;10.80;1.00;;;;;;5057055;28;20465;-59
2023/05/02 00:04:15;;;;;;;21.03;18.30;;;10.80;1.00;;;;;;5056811;28;20466;-58
2023/05/02 00:06:45;;;;;;;21.23;17.97;;;10.70;1.00;;;;;;5056408;28;20567;-59
2023/05/02 00:09:12;;;;;;;27.10;19.47;;;10.70;1.00;;;;;;5056986;28;20466;-59
2023/05/02 00:11:39;;;;;;;23.07;20.17;;;10.60;1.00;;;;;;5057391;28;20462;-60
2023/05/02 00:14:07;;;;;;;25.57;21.63;;;10.60;1.00;;;;;;5060904;28;20468;-60
2023/05/02 00:16:34;;;;;;;29.27;21.87;;;10.60;1.00;;;;;;5060835;28;20457;-59
2023/05/02 00:19:02;;;;;;;25.73;22.93;;;10.50;1.00;;;;;;5060916;28;20604;-58
2023/05/02 00:21:31;;;;;;;27.43;24.07;;;10.50;1.00;;;;;;5061425;28;20465;-57
2023/05/02 00:23:59;;;;;;;27.00;22.63;;;10.40;1.00;;;;;;5061303;28;20458;-58
2023/05/02 00:26:26;;;;;;;26.20;23.47;;;10.40;1.00;;;;;;5060738;28;20462;-57
2023/05/02 00:28:53;;;;;;;30.47;23.97;;;10.40;1.00;;;;;;5060560;28;20490;-60
2023/05/02 00:31:20;;;;;;;28.70;23.87;;;10.30;1.00;;;;;;5060877;28;20484;-57
2023/05/02 00:33:47;;;;;;;31.33;24.60;;;10.30;1.00;;;;;;5060776;28;20472;-59
2023/05/02 00:36:17;;;;;;;27.47;24.43;;;10.20;1.00;;;;;;5059765;28;20468;-59
2023/05/02 00:38:44;;;;;;;27.07;23.90;;;10.20;1.00;;;;;;5060473;28;20494;-58
2023/05/02 00:41:12;;;;;;;30.70;25.50;;;10.20;1.00;;;;;;5060875;28;20466;-60
2023/05/02 00:43:39;;;;;;;27.50;23.70;;;10.20;1.00;;;;;;5060309;28;20501;-58
2023/05/02 00:46:07;;;;;;;33.53;25.37;;;10.20;1.00;;;;;;5060273;28;20466;-60
2023/05/02 00:48:35;;;;;;;29.80;25.00;;;10.20;1.00;;;;;;5060061;28;20465;-58
2023/05/02 00:51:05;;;;;;;31.77;24.60;;;10.20;1.00;;;;;;5060256;28;20745;-60
2023/05/02 00:53:33;;;;;;;32.37;26.77;;;10.20;1.00;;;;;;5059872;28;20875;-60
2023/05/02 00:56:02;;;;;;;33.40;28.53;;;10.20;5.80;;;;;;5060303;28;20433;-59
2023/05/02 00:58:30;;;;;;;34.07;27.40;;;10.20;6.00;;;;;;5060215;28;20504;-55
2023/05/02 01:01:08;;;;;;;38.23;31.30;;;10.20;26.10;;;;;;5059915;28;20899;-57
2023/05/02 01:03:45;;;;;;;40.83;30.30;;;10.10;91.20;;;;;;5060425;28;20464;-60
2023/05/02 01:06:28;;;;;;;46.90;30.30;;;10.10;99.90;;;;;;5059687;28;20560;-59
2023/05/02 01:09:06;;;;;;;38.23;30.23;;;10.10;99.90;;;;;;5059904;28;20976;-60
2023/05/02 01:11:39;;;;;;;44.30;32.00;;;10.10;99.90;;;;;;5060038;28;20500;-60
2023/05/02 01:14:11;;;;;;;44.27;32.50;;;10.20;1.00;;;;;;5059535;28;20519;-60
2023/05/02 01:16:40;;;;;;;48.13;33.20;;;10.20;1.00;;;;;;5060048;28;20877;-59
2023/05/02 01:19:14;;;;;;;46.37;33.20;;;10.20;1.00;;;;;;5059560;28;20534;-60
2023/05/02 01:21:42;;;;;;;42.97;31.90;;;10.30;1.00;;;;;;5059876;28;20469;-60
2023/05/02 01:24:17;;;;;;;42.47;33.83;;;10.30;1.00;;;;;;5059921;28;20466;-59
2023/05/02 01:26:52;;;;;;;43.00;34.10;;;10.30;1.00;;;;;;5059693;28;20484;-57
2023/05/02 01:29:23;;;;;;;45.57;33.57;;;10.30;1.00;;;;;;5059526;28;20544;-60
2023/05/02 01:31:51;;;;;;;47.90;36.00;;;10.30;1.00;;;;;;5067511;28;20887;-60
2023/05/02 01:34:21;;;;;;;46.97;36.03;;;10.40;1.00;;;;;;5079196;28;20465;-59
2023/05/02 01:36:51;;;;;;;44.53;34.83;;;10.30;1.00;;;;;;5079587;28;20840;-57
2023/05/02 01:39:21;;;;;;;46.10;35.40;;;10.30;1.00;;;;;;5079108;28;20627;-58
2023/05/02 01:41:51;;;;;;;45.90;35.43;;;10.20;1.00;;;;;;5079583;28;20481;-57
2023/05/02 01:44:21;;;;;;;47.70;38.30;;;10.10;1.00;;;;;;5079341;28;20461;-59
2023/05/02 01:46:49;;;;;;;46.67;35.43;;;10.00;1.00;;;;;;5079330;28;20518;-59
2023/05/02 01:49:18;;;;;;;47.63;37.40;;;10.10;1.00;;;;;;5079484;28;20544;-60
2023/05/02 01:51:47;;;;;;;45.20;36.20;;;10.00;1.00;;;;;;5078843;28;20468;-60
2023/05/02 01:54:17;;;;;;;47.00;35.10;;;9.90;1.00;;;;;;5078846;28;20472;-60
2023/05/02 01:56:45;;;;;;;52.53;37.20;;;10.00;99.90;;;;;;5079123;28;20461;-60
2023/05/02 01:59:15;;;;;;;49.70;35.83;;;10.00;1.00;;;;;;5079108;28;20921;-58
2023/05/02 02:01:44;;;;;;;51.27;40.83;;;10.10;1.00;;;;;;5079479;28;20813;-60
2023/05/02 02:04:14;;;;;;;52.97;38.67;;;10.10;1.00;;;;;;5078913;28;20457;-60
2023/05/02 02:06:45;;;;;;;54.93;40.87;;;10.10;99.90;;;;;;5079094;28;20466;-60
2023/05/02 02:09:13;;;;;;;51.93;38.70;;;10.20;99.90;;;;;;5079216;28;20465;-60
2023/05/02 02:11:47;;;;;;;62.47;44.40;;;10.20;1.00;;;;;;5078731;28;20461;-59
2023/05/02 02:14:21;;;;;;;64.83;44.90;;;10.20;1.00;;;;;;5078493;28;20460;-59
2023/05/02 02:16:53;;;;;;;68.00;46.50;;;10.20;21.60;;;;;;5079038;28;20894;-60
2023/05/02 02:19:22;;;;;;;77.97;48.70;;;10.20;99.90;;;;;;5078785;28;20507;-60
2023/05/02 02:21:51;;;;;;;76.63;49.57;;;10.10;99.90;;;;;;5079055;28;20465;-60
2023/05/02 02:24:26;;;;;;;78.10;49.80;;;10.20;99.90;;;;;;5078584;28;20734;-58
2023/05/02 02:26:53;;;;;;;85.30;53.77;;;10.10;99.90;;;;;;5078524;28;20439;-61
2023/05/02 02:29:20;;;;;;;74.37;47.07;;;10.00;99.90;;;;;;5078388;28;20477;-60
2023/05/02 02:31:48;;;;;;;69.10;45.00;;;9.90;1.00;;;;;;5078865;28;20467;-57
2023/05/02 02:34:16;;;;;;;60.70;41.13;;;9.90;1.00;;;;;;5078386;28;20463;-60
2023/05/02 02:36:50;;;;;;;58.40;37.80;;;9.90;1.00;;;;;;5077842;28;20515;-57
2023/05/02 02:39:27;;;;;;;55.43;35.33;;;9.80;99.90;;;;;;5078385;28;20586;-59
2023/05/02 02:42:08;;;;;;;49.83;34.03;;;9.90;99.90;;;;;;5077967;28;20567;-59
2023/05/02 02:44:43;;;;;;;45.00;31.87;;;9.80;83.70;;;;;;5078217;28;20539;-60
2023/05/02 02:47:20;;;;;;;36.60;26.30;;;9.80;99.90;;;;;;5078154;28;20487;-60
2023/05/02 02:49:51;;;;;;;38.03;24.60;;;9.80;99.90;;;;;;5078564;28;20457;-60
2023/05/02 02:52:24;;;;;;;38.57;26.50;;;9.80;99.90;;;;;;5077937;28;20468;-58
2023/05/02 02:54:58;;;;;;;36.20;24.67;;;9.80;1.00;;;;;;5078312;28;20480;-61
2023/05/02 02:57:31;;;;;;;37.10;25.20;;;9.80;14.70;;;;;;5078060;28;20461;-60
2023/05/02 03:00:04;;;;;;;36.30;25.17;;;9.90;49.00;;;;;;5078324;28;20539;-58
2023/05/02 03:02:34;;;;;;;34.57;24.10;;;9.90;1.00;;;;;;5078079;28;20473;-60
2023/05/02 03:05:02;;;;;;;36.07;25.43;;;9.90;1.00;;;;;;5077989;28;20439;-60
2023/05/02 03:07:30;;;;;;;36.07;25.60;;;9.90;1.00;;;;;;5077586;28;20465;-60
2023/05/02 03:09:57;;;;;;;34.97;24.13;;;9.90;1.00;;;;;;5077786;28;20559;-60
2023/05/02 03:12:24;;;;;;;30.90;23.13;;;9.90;1.00;;;;;;5077647;28;20465;-61
2023/05/02 03:14:52;;;;;;;33.77;23.67;;;9.90;99.90;;;;;;5077606;28;20770;-60
2023/05/02 03:17:19;;;;;;;31.27;21.40;;;9.90;99.90;;;;;;5077611;28;20436;-61
2023/05/02 03:19:47;;;;;;;31.50;20.53;;;9.90;1.00;;;;;;5077573;28;20486;-60
2023/05/02 03:22:15;;;;;;;29.60;19.13;;;9.80;1.00;;;;;;5077411;28;20461;-59
2023/05/02 03:24:42;;;;;;;24.17;17.83;;;9.80;33.80;;;;;;5077741;28;20466;-61
2023/05/02 03:27:09;;;;;;;26.27;18.40;;;9.80;99.90;;;;;;5077441;28;20818;-59
2023/05/02 03:29:36;;;;;;;29.50;20.93;;;9.80;1.00;;;;;;5077346;28;20559;-60
2023/05/02 03:32:04;;;;;;;30.83;19.77;;;9.80;99.90;;;;;;5077004;28;20461;-61
2023/05/02 03:34:31;;;;;;;24.63;17.47;;;9.90;1.00;;;;;;5077343;28;20517;-61
2023/05/02 03:37:00;;;;;;;25.73;19.07;;;9.90;1.00;;;;;;5077479;28;20551;-61
2023/05/02 03:39:27;;;;;;;25.20;17.33;;;9.90;1.00;;;;;;5077288;28;20493;-59
2023/05/02 03:41:54;;;;;;;31.87;19.53;;;9.90;1.00;;;;;;5077488;28;20784;-61
2023/05/02 03:44:21;;;;;;;25.10;17.80;;;9.90;1.00;;;;;;5077616;28;20464;-61
2023/05/02 03:46:48;;;;;;;25.77;18.03;;;9.90;1.00;;;;;;5076418;28;20461;-61
2023/05/02 03:49:15;;;;;;;31.00;20.10;;;9.90;99.90;;;;;;5077182;28;20464;-60
2023/05/02 03:51:42;;;;;;;29.40;18.77;;;9.80;1.00;;;;;;5077072;28;20469;-60
2023/05/02 03:54:11;;;;;;;28.97;19.10;;;9.80;99.90;;;;;;5076946;28;20815;-61
2023/05/02 03:56:38;;;;;;;28.63;18.63;;;9.80;99.90;;;;;;5077139;28;20461;-60
2023/05/02 03:59:05;;;;;;;27.10;19.80;;;9.70;99.90;;;;;;5077354;28;20764;-61
2023/05/02 04:01:32;;;;;;;27.13;19.53;;;9.80;1.00;;;;;;5077504;28;20569;-61
2023/05/02 04:03:59;;;;;;;23.87;17.27;;;9.80;1.00;;;;;;5077274;28;20900;-61
2023/05/02 04:06:27;;;;;;;29.07;17.13;;;9.70;99.90;;;;;;5076949;28;20957;-61
2023/05/02 04:08:54;;;;;;;25.60;16.57;;;9.80;1.00;;;;;;5076834;28;20548;-60
2023/05/02 04:11:22;;;;;;;24.47;16.07;;;9.80;99.90;;;;;;5077246;28;20562;-61
2023/05/02 04:13:50;;;;;;;20.83;14.63;;;9.80;1.00;;;;;;5076656;28;20461;-60
2023/05/02 04:16:17;;;;;;;27.20;15.87;;;9.80;99.90;;;;;;5058148;28;20549;-61
2023/05/02 04:18:44;;;;;;;26.73;17.33;;;9.80;1.00;;;;;;5066769;28;20651;-61
2023/05/02 04:21:11;;;;;;;21.83;16.57;;;9.80;99.90;;;;;;5055946;28;20772;-60
2023/05/02 04:23:38;;;;;;;22.30;15.33;;;9.80;1.00;;;;;;5055209;28;20560;-60
2023/05/02 04:26:06;;;;;;;22.70;16.47;;;9.80;99.90;;;;;;5055358;28;20492;-61
2023/05/02 04:28:35;;;;;;;24.17;16.17;;;9.80;99.90;;;;;;5054725;28;20609;-61
2023/05/02 04:31:03;;;;;;;28.03;16.07;;;9.90;99.90;;;;;;5058214;28;20456;-61
2023/05/02 04:33:30;;;;;;;23.87;14.47;;;9.90;1.00;;;;;;5074766;28;20457;-59
2023/05/02 04:35:57;;;;;;;17.70;13.97;;;9.90;1.00;;;;;;5074815;28;20457;-60
2023/05/02 04:38:25;;;;;;;20.33;15.70;;;9.90;99.90;;;;;;5074246;28;20506;-59
2023/05/02 04:40:52;;;;;;;25.00;13.90;;;10.00;1.00;;;;;;5074249;28;20511;-61
2023/05/02 04:43:19;;;;;;;20.77;14.80;;;9.90;71.70;;;;;;5073894;28;20460;-60
2023/05/02 04:45:48;;;;;;;22.67;15.57;;;10.00;98.70;;;;;;5074524;28;20461;-60
2023/05/02 04:48:15;;;;;;;24.90;15.90;;;10.00;99.90;;;;;;5074177;28;20464;-61
2023/05/02 04:50:42;;;;;;;23.17;15.40;;;10.00;2.50;;;;;;5075903;28;20555;-61
2023/05/02 04:53:10;;;;;;;20.40;14.20;;;10.00;99.90;;;;;;5075242;28;20515;-61
2023/05/02 04:55:37;;;;;;;22.13;15.40;;;10.00;99.90;;;;;;5075789;28;20883;-61
2023/05/02 04:58:04;;;;;;;19.80;14.33;;;10.00;99.90;;;;;;5076213;28;20953;-61
2023/05/02 05:00:32;;;;;;;21.07;14.93;;;10.00;1.00;;;;;;5080021;28;20492;-61
2023/05/02 05:03:00;;;;;;;21.07;15.07;;;10.00;1.00;;;;;;5079945;28;20469;-61
2023/05/02 05:05:28;;;;;;;22.50;15.50;;;10.00;1.00;;;;;;5080571;28;20466;-61
2023/05/02 05:07:55;;;;;;;23.63;16.07;;;10.00;1.00;;;;;;5080234;28;20504;-60
2023/05/02 05:10:22;;;;;;;26.03;16.90;;;10.10;9.70;;;;;;5080122;28;20511;-61
2023/05/02 05:12:49;;;;;;;31.90;22.40;;;10.10;99.90;;;;;;5080025;28;20559;-61
2023/05/02 05:15:17;;;;;;;36.07;21.20;;;10.00;1.00;;;;;;5079132;28;20921;-61
2023/05/02 05:17:47;;;;;;;35.03;23.40;;;10.00;99.90;;;;;;5078380;28;20484;-61
2023/05/02 05:20:15;;;;;;;36.03;24.57;;;9.90;1.00;;;;;;5078886;28;20485;-61
2023/05/02 05:22:43;;;;;;;35.17;23.07;;;10.00;1.00;;;;;;5079097;28;20891;-61
2023/05/02 05:25:11;;;;;;;35.80;25.23;;;10.00;99.90;;;;;;5079507;28;20505;-61
2023/05/02 05:27:39;;;;;;;38.97;24.00;;;10.00;99.90;;;;;;5079665;28;20546;-62
2023/05/02 05:30:07;;;;;;;34.93;24.97;;;10.00;99.90;;;;;;5078940;28;20551;-62
2023/05/02 05:32:35;;;;;;;36.07;26.30;;;10.00;1.00;;;;;;5079675;28;20461;-62
2023/05/02 05:35:03;;;;;;;34.17;25.27;;;10.10;1.00;;;;;;5078819;28;20504;-62
2023/05/02 05:37:31;;;;;;;35.90;24.30;;;10.10;2.90;;;;;;5079029;28;20567;-62
2023/05/02 05:39:59;;;;;;;37.27;25.53;;;10.20;29.90;;;;;;5077367;28;20953;-62
2023/05/02 05:42:26;;;;;;;37.30;24.90;;;10.30;33.50;;;;;;5076147;28;20430;-62
2023/05/02 05:44:53;;;;;;;38.50;27.97;;;10.20;1.00;;;;;;5077566;28;20471;-62
2023/05/02 05:47:21;;;;;;;36.60;25.00;;;10.20;46.10;;;;;;5077020;28;20463;-62
2023/05/02 05:49:52;;;;;;;30.37;21.80;;;10.10;54.00;;;;;;5075810;28;20457;-62
2023/05/02 05:52:19;;;;;;;33.33;21.90;;;10.00;99.90;;;;;;5074973;28;20471;-62
2023/05/02 05:54:48;;;;;;;31.23;20.07;;;10.00;99.90;;;;;;5074588;28;20497;-62
2023/05/02 05:57:15;;;;;;;26.10;19.27;;;9.90;99.90;;;;;;5075823;28;20520;-61
2023/05/02 05:59:42;;;;;;;25.77;18.33;;;9.90;99.90;;;;;;5076205;28;20485;-61
2023/05/02 06:02:09;;;;;;;27.40;16.60;;;10.00;99.90;;;;;;5074246;28;20462;-61
2023/05/02 06:04:37;;;;;;;24.37;17.00;;;9.80;99.90;;;;;;5072139;28;20527;-60
2023/05/02 06:07:04;;;;;;;23.50;17.87;;;9.90;99.90;;;;;;5073645;28;20801;-55
2023/05/02 06:09:31;;;;;;;19.20;16.20;;;9.90;99.90;;;;;;5074070;28;20480;-54
2023/05/02 06:12:02;;;;;;;20.27;15.37;;;9.80;99.90;;;;;;5076263;28;20559;-56
2023/05/02 06:14:29;;;;;;;22.20;16.53;;;9.80;99.90;;;;;;5075583;28;20472;-50
2023/05/02 06:16:59;;;;;;;21.13;15.60;;;9.70;99.90;;;;;;5075725;28;20465;-55
2023/05/02 06:19:26;;;;;;;19.77;14.70;;;9.80;99.90;;;;;;5077514;28;20495;-55
2023/05/02 06:21:53;;;;;;;17.77;14.80;;;9.70;99.90;;;;;;5077369;28;20488;-56
2023/05/02 06:24:20;;;;;;;17.30;15.40;;;9.70;99.90;;;;;;5076292;28;20454;-54
2023/05/02 06:26:48;;;;;;;17.00;12.80;;;9.60;99.90;;;;;;5076353;28;20472;-54
2023/05/02 06:29:16;;;;;;;13.63;11.43;;;9.60;99.90;;;;;;5076228;28;20485;-59
2023/05/02 06:31:43;;;;;;;12.00;10.80;;;9.60;99.90;;;;;;5077954;28;20548;-57
2023/05/02 06:34:11;;;;;;;12.20;10.90;;;9.50;99.90;;;;;;5077871;28;20457;-58
2023/05/02 06:36:38;;;;;;;14.37;10.23;;;9.50;99.90;;;;;;5076644;28;20965;-55
2023/05/02 06:39:05;;;;;;;12.77;10.10;;;9.60;99.90;;;;;;5077487;28;20495;-53
2023/05/02 06:41:32;;;;;;;13.00;10.07;;;9.70;99.90;;;;;;5078102;28;20493;-58
2023/05/02 06:43:59;;;;;;;13.10;10.70;;;9.60;99.90;;;;;;5078787;28;20699;-56
2023/05/02 06:46:30;;;;;;;12.10;10.17;;;9.60;99.90;;;;;;5077876;28;20488;-57
2023/05/02 06:48:58;;;;;;;13.10;11.80;;;9.60;99.90;;;;;;5076318;28;20461;-60
2023/05/02 06:51:26;;;;;;;13.87;12.30;;;9.70;99.90;;;;;;5076421;28;20890;-56
2023/05/02 06:53:53;;;;;;;19.30;12.33;;;9.60;99.90;;;;;;5075894;28;20766;-58
2023/05/02 06:56:20;;;;;;;14.17;12.67;;;9.70;99.90;;;;;;5076531;28;20796;-60
2023/05/02 06:58:48;;;;;;;19.50;14.77;;;9.60;99.90;;;;;;5076722;28;20545;-61
2023/05/02 07:01:15;;;;;;;14.77;13.23;;;9.70;99.90;;;;;;5076310;28;20945;-58
2023/05/02 07:03:44;;;;;;;14.80;13.30;;;9.80;99.90;;;;;;5077976;28;20555;-60
2023/05/02 07:06:11;;;;;;;17.87;13.63;;;9.80;99.90;;;;;;5076976;28;20916;-61
2023/05/02 07:08:38;;;;;;;15.20;13.53;;;9.90;99.90;;;;;;5077907;28;20749;-65
2023/05/02 07:11:05;;;;;;;14.40;11.67;;;10.10;99.90;;;;;;5076946;28;20468;-66
2023/05/02 07:13:32;;;;;;;15.30;11.00;;;10.20;99.90;;;;;;5076990;28;20883;-66
2023/05/02 07:16:00;;;;;;;14.63;11.70;;;10.30;99.90;;;;;;5077647;28;20551;-67
2023/05/02 07:18:27;;;;;;;10.70;9.43;;;10.10;99.90;;;;;;5076828;28;20909;-67
2023/05/02 07:20:55;;;;;;;11.63;9.27;;;10.10;1.00;;;;;;5075613;28;20551;-67
2023/05/02 07:23:23;;;;;;;11.10;9.83;;;10.40;99.90;;;;;;5075906;28;20855;-67
2023/05/02 07:25:50;;;;;;;12.20;9.60;;;10.40;1.00;;;;;;5075418;28;20461;-67
2023/05/02 07:28:17;;;;;;;9.03;8.23;;;10.40;99.90;;;;;;5074136;28;20493;-67
2023/05/02 07:30:45;;;;;;;9.97;7.23;;;10.30;99.90;;;;;;5075924;28;20552;-66
2023/05/02 07:33:12;;;;;;;12.83;7.60;;;10.30;13.40;;;;;;5076904;28;20504;-66
2023/05/02 07:35:39;;;;;;;9.20;7.47;;;10.40;1.00;;;;;;5076586;28;20519;-67
2023/05/02 07:38:08;;;;;;;9.00;7.63;;;10.60;1.00;;;;;;5075819;28;20453;-67
2023/05/02 07:40:35;;;;;;;11.30;6.73;;;10.80;99.90;;;;;;5075017;28;20499;-67
2023/05/02 07:43:02;;;;;;;7.13;5.73;;;10.80;99.90;;;;;;5069195;28;20469;-67
2023/05/02 07:45:29;;;;;;;9.77;6.00;;;11.00;99.90;;;;;;5070929;28;20466;-68
2023/05/02 07:47:57;;;;;;;7.17;5.97;;;10.70;92.30;;;;;;5073623;28;20564;-68
2023/05/02 07:50:24;;;;;;;8.80;6.47;;;10.50;29.00;;;;;;5075102;28;20734;-68
2023/05/02 07:52:52;;;;;;;10.53;6.13;;;10.50;1.00;;;;;;5077062;28;20473;-68
2023/05/02 07:55:21;;;;;;;8.50;5.53;;;10.50;1.00;;;;;;5077216;28;20461;-68
2023/05/02 07:57:48;;;;;;;8.10;5.30;;;10.90;1.00;;;;;;5077558;28;20908;-68
2023/05/02 08:00:16;;;;;;;9.07;6.70;;;11.00;1.00;;;;;;5074785;28;20579;-68
2023/05/02 08:02:44;;;;;;;8.37;5.63;;;10.80;1.00;;;;;;5076247;28;20484;-68
2023/05/02 08:05:11;;;;;;;6.50;5.70;;;10.50;1.00;;;;;;5076006;28;20462;-67
2023/05/02 08:07:38;;;;;;;8.03;5.87;;;10.60;1.00;;;;;;5076437;28;20563;-67
2023/05/02 08:10:07;;;;;;;6.77;6.10;;;10.60;1.00;;;;;;5076097;28;20471;-68
2023/05/02 08:12:40;;;;;;;7.50;6.10;;;10.50;1.00;;;;;;5075021;28;20514;-68
2023/05/02 08:15:09;;;;;;;9.27;7.10;;;10.60;1.00;;;;;;5077284;28;20799;-67
2023/05/02 08:17:36;;;;;;;7.73;6.90;;;10.30;1.00;;;;;;5077144;28;20731;-68
2023/05/02 08:20:04;;;;;;;9.03;6.97;;;10.30;1.00;;;;;;5075591;28;20951;-67
2023/05/02 08:22:31;;;;;;;8.93;8.03;;;10.10;1.00;;;;;;5076138;28;20495;-67
2023/05/02 08:24:58;;;;;;;9.53;7.37;;;10.00;1.00;;;;;;5076961;28;20891;-67
2023/05/02 08:27:25;;;;;;;7.57;6.80;;;10.00;1.00;;;;;;5076630;28;20558;-67
2023/05/02 08:29:54;;;;;;;7.77;6.90;;;9.90;1.00;;;;;;5071017;28;20473;-67
2023/05/02 08:32:22;;;;;;;6.60;5.10;;;9.70;99.90;;;;;;5067429;28;20481;-69
2023/05/02 08:34:49;;;;;;;5.57;4.17;;;9.40;99.90;;;;;;5077098;28;20486;-69
2023/05/02 08:37:17;;;;;;;6.07;4.50;;;9.20;99.90;;;;;;5080511;28;20867;-69
2023/05/02 08:39:44;;;;;;;4.63;3.83;;;9.10;1.00;;;;;;5079659;28;20461;-69
2023/05/02 08:42:11;;;;;;;4.60;4.20;;;9.00;1.00;;;;;;5080742;28;20937;-69
2023/05/02 08:44:39;;;;;;;14.13;5.43;;;8.80;99.90;;;;;;5081225;28;20469;-69
2023/05/02 08:47:11;;;;;;;7.37;4.27;;;8.80;99.90;;;;;;5080172;28;20471;-69
2023/05/02 08:49:39;;;;;;;10.00;3.50;;;8.70;99.90;;;;;;5078503;28;20461;-69
2023/05/02 08:52:10;;;;;;;5.10;3.93;;;8.70;1.00;;;;;;5078556;28;20500;-68
2023/05/02 08:54:38;;;;;;;4.50;4.10;;;8.70;35.70;;;;;;5078212;28;20808;-67
2023/05/02 08:57:06;;;;;;;6.80;4.27;;;8.80;1.00;;;;;;5077246;28;20515;-67
2023/05/02 08:59:33;;;;;;;4.90;4.40;;;9.00;1.00;;;;;;5077858;28;20909;-67
2023/05/02 09:02:05;;;;;;;5.20;3.93;;;9.20;99.90;;;;;;5078080;28;20499;-67
2023/05/02 09:04:39;;;;;;;6.50;4.87;;;9.20;99.90;;;;;;5079128;28;20453;-67
2023/05/02 09:07:06;;;;;;;6.60;4.60;;;9.20;99.90;;;;;;5080233;28;20878;-67
2023/05/02 09:09:34;;;;;;;10.57;5.13;;;9.30;99.90;;;;;;5078514;28;20461;-68
2023/05/02 09:12:02;;;;;;;7.10;4.70;;;9.70;1.00;;;;;;5079833;28;20857;-67
2023/05/02 09:14:29;;;;;;;6.23;5.60;;;9.90;94.70;;;;;;5079516;28;20561;-68
2023/05/02 09:16:59;;;;;;;6.20;5.53;;;10.20;1.00;;;;;;5078731;28;20564;-68
2023/05/02 09:19:27;;;;;;;7.37;5.30;;;10.50;1.00;;;;;;5078429;28;20810;-67
2023/05/02 09:22:01;;;;;;;4.97;4.30;;;10.40;1.00;;;;;;5078484;28;20488;-68
2023/05/02 09:24:28;;;;;;;5.47;3.80;;;10.30;1.00;;;;;;5077863;28;20458;-68
2023/05/02 09:26:58;;;;;;;5.43;3.60;;;10.30;1.00;;;;;;5076692;28;20858;-68
2023/05/02 09:29:27;;;;;;;4.47;3.20;;;9.90;1.00;;;;;;5077142;28;20495;-69
2023/05/02 09:31:54;;;;;;;5.13;3.63;;;9.50;1.00;;;;;;5077898;28;20475;-68
2023/05/02 09:34:21;;;;;;;4.13;3.53;;;9.20;1.00;;;;;;5079703;28;20663;-69
2023/05/02 09:36:52;;;;;;;8.43;3.90;;;9.10;1.00;;;;;;5079949;28;20516;-69
2023/05/02 09:39:22;;;;;;;8.30;4.63;;;8.80;1.00;;;;;;5079697;28;20461;-68
2023/05/02 09:41:50;;;;;;;5.70;3.67;;;8.80;1.00;;;;;;5079045;28;20487;-68
2023/05/02 09:44:18;;;;;;;5.13;4.63;;;9.00;1.00;;;;;;5077942;28;20469;-68
2023/05/02 09:46:47;;;;;;;8.00;5.77;;;9.10;1.00;;;;;;5078520;28;20461;-68
2023/05/02 09:49:17;;;;;;;8.03;7.23;;;9.00;1.00;;;;;;5079484;28;20465;-68
2023/05/02 09:51:45;;;;;;;9.67;7.47;;;8.80;1.00;;;;;;5079330;28;20465;-67
2023/05/02 09:54:13;;;;;;;8.47;7.20;;;8.90;1.00;;;;;;5079658;28;20902;-68
2023/05/02 09:56:57;;;;;;;8.73;7.80;;;9.00;1.00;;;;;;5078743;28;20518;-67
2023/05/02 09:59:24;;;;;;;8.37;5.90;;;9.10;1.00;;;;;;5078949;28;20480;-67
2023/05/02 10:01:56;;;;;;;5.80;5.13;;;9.20;1.00;;;;;;5076619;28;20532;-65
2023/05/02 10:04:25;;;;;;;7.60;5.27;;;9.50;1.00;;;;;;5076936;28;20469;-66
2023/05/02 10:06:53;;;;;;;7.47;5.40;;;9.70;1.00;;;;;;5075849;28;20454;-66
2023/05/02 10:09:23;;;;;;;7.97;4.90;;;9.60;1.00;;;;;;5078348;28;20503;-66
2023/05/02 10:11:53;;;;;;;5.33;4.80;;;10.00;1.00;;;;;;5076111;28;20454;-67
2023/05/02 10:14:25;;;;;;;8.40;5.20;;;9.70;1.00;;;;;;5078845;28;20565;-66
2023/05/02 10:16:58;;;;;;;8.70;5.90;;;9.70;1.00;;;;;;5078838;28;20898;-66
2023/05/02 10:19:30;;;;;;;6.63;5.93;;;9.90;1.00;;;;;;5079049;28;20741;-67
2023/05/02 10:22:00;;;;;;;10.10;6.83;;;9.80;1.00;;;;;;5077829;28;20489;-66
2023/05/02 10:24:28;;;;;;;7.87;7.00;;;9.70;1.00;;;;;;5077896;28;20465;-66
2023/05/02 10:26:56;;;;;;;9.07;8.17;;;9.50;1.00;;;;;;5076534;28;20957;-65
2023/05/02 10:29:27;;;;;;;6.10;5.17;;;9.60;1.00;;;;;;5077698;28;20524;-66
2023/05/02 10:31:57;;;;;;;9.13;5.33;;;9.40;1.00;;;;;;5077845;28;20461;-66
2023/05/02 10:34:24;;;;;;;6.53;5.87;;;9.30;1.00;;;;;;5077781;28;20547;-65
2023/05/02 10:36:51;;;;;;;10.37;5.70;;;9.20;1.00;;;;;;5077418;28;20458;-65
2023/05/02 10:39:23;;;;;;;6.10;5.33;;;9.30;1.00;;;;;;5077454;28;20467;-65
2023/05/02 10:41:54;;;;;;;6.10;4.40;;;9.30;99.90;;;;;;5077398;28;20507;-65
2023/05/02 10:44:35;;;;;;;7.13;5.00;;;9.30;99.90;;;;;;5076793;28;20568;-64
2023/05/02 10:47:19;;;;;;;3.90;3.43;;;9.70;99.90;;;;;;5076392;28;20472;-64
2023/05/02 10:49:51;;;;;;;6.40;3.73;;;10.10;99.90;;;;;;5078391;28;20466;-64
2023/05/02 10:52:29;;;;;;;5.90;3.50;;;10.40;99.90;;;;;;5078162;28;20461;-65
2023/05/02 10:55:19;;;;;;;6.00;3.63;;;10.70;99.90;;;;;;5076190;28;20571;-64
2023/05/02 10:58:20;;;;;;;6.90;4.67;;;11.10;99.90;;;;;;5076097;28;20559;-65
2023/05/02 11:00:49;;;;;;;6.67;5.00;;;11.10;99.90;;;;;;5072557;28;20491;-65
2023/05/02 11:03:55;;;;;;;6.70;5.20;;;10.70;99.90;;;;;;5076624;28;20866;-65
2023/05/02 11:06:22;;;;;;;7.00;5.20;;;11.00;99.90;;;;;;5076293;28;20461;-66
2023/05/02 11:08:50;;;;;;;5.00;4.40;;;11.70;99.90;;;;;;5075908;28;20545;-65
2023/05/02 11:11:45;;;;;;;6.17;4.10;;;12.10;99.90;;;;;;5077903;28;20893;-65
2023/05/02 11:14:32;;;;;;;6.03;4.63;;;12.70;99.90;;;;;;5030630;28;20495;-65
2023/05/02 11:17:20;;;;;;;6.80;4.67;;;13.00;99.90;;;;;;5074852;28;20470;-65
2023/05/02 11:20:24;;;;;;;4.67;4.27;;;13.50;99.90;;;;;;5072199;28;20468;-65
2023/05/02 11:22:53;;;;;;;4.73;4.10;;;13.80;99.90;;;;;;5075072;28;20499;-65
2023/05/02 11:25:31;;;;;;;7.83;4.80;;;13.00;99.90;;;;;;5075636;28;20473;-66
2023/05/02 11:27:59;;;;;;;8.23;4.60;;;13.50;99.90;;;;;;5071906;28;20926;-66
2023/05/02 11:30:39;;;;;;;7.27;5.03;;;13.60;99.90;;;;;;5075183;28;20487;-65
2023/05/02 11:33:18;;;;;;;5.13;4.63;;;13.60;99.90;;;;;;5075494;28;20457;-65
2023/05/02 11:35:47;;;;;;;6.83;5.00;;;13.60;99.90;;;;;;5075633;28;20964;-65
2023/05/02 11:38:16;;;;;;;8.97;5.20;;;13.80;99.90;;;;;;5076632;28;20736;-65
2023/05/02 11:40:58;;;;;;;5.37;4.87;;;14.40;99.90;;;;;;5076875;28;20801;-65
2023/05/02 11:43:27;;;;;;;8.40;6.10;;;14.80;99.90;;;;;;5074617;28;20461;-66
2023/05/02 11:45:58;;;;;;;6.90;5.07;;;15.10;99.90;;;;;;5073911;28;20906;-65
2023/05/02 11:48:27;;;;;;;6.70;4.97;;;13.80;99.90;;;;;;5074760;28;20461;-65
2023/05/02 11:50:57;;;;;;;8.30;5.97;;;13.80;99.90;;;;;;5075622;28;20457;-65
2023/05/02 11:53:27;;;;;;;6.63;5.83;;;12.90;99.90;;;;;;5074839;28;20468;-65
2023/05/02 11:55:56;;;;;;;8.97;6.27;;;12.40;99.90;;;;;;5070996;28;20497;-65
2023/05/02 11:58:25;;;;;;;8.00;6.90;;;12.10;99.90;;;;;;5055234;28;20461;-64
2023/05/02 12:00:53;;;;;;;6.73;6.10;;;12.00;99.90;;;;;;5055069;28;20446;-64
2023/05/02 12:03:26;;;;;;;8.13;6.97;;;11.80;99.90;;;;;;5054629;28;20810;-64
2023/05/02 12:05:54;;;;;;;11.20;7.07;;;12.10;99.90;;;;;;5069048;28;20507;-64
2023/05/02 12:08:23;;;;;;;11.33;7.57;;;12.00;99.90;;;;;;5071393;28;20571;-64
2023/05/02 12:10:52;;;;;;;7.40;6.60;;;11.90;99.90;;;;;;5074490;28;20826;-64
2023/05/02 12:13:22;;;;;;;15.70;6.17;;;11.60;99.90;;;;;;5076030;28;20560;-64
2023/05/02 12:15:50;;;;;;;10.93;6.43;;;11.30;99.90;;;;;;5076041;28;20540;-64
2023/05/02 12:18:18;;;;;;;8.50;6.13;;;10.80;99.90;;;;;;5072049;28;20504;-64
2023/05/02 12:20:47;;;;;;;7.40;5.70;;;10.60;99.90;;;;;;5075803;28;20458;-64
2023/05/02 12:23:14;;;;;;;9.57;6.10;;;10.60;99.90;;;;;;5073086;28;20488;-64
2023/05/02 12:25:42;;;;;;;10.00;6.17;;;10.70;99.90;;;;;;5062276;28;20470;-64
2023/05/02 12:28:10;;;;;;;11.43;6.60;;;10.90;99.90;;;;;;5055461;28;20580;-63
2023/05/02 12:30:40;;;;;;;8.47;5.40;;;11.20;99.90;;;;;;5058406;28;20564;-63
2023/05/02 12:33:08;;;;;;;11.40;6.07;;;11.40;99.90;;;;;;5056387;28;20901;-63
2023/05/02 12:35:36;;;;;;;14.33;6.07;;;11.60;99.90;;;;;;5056448;28;20474;-63
2023/05/02 12:38:13;;;;;;;9.00;5.80;;;11.90;99.90;;;;;;5059255;28;20775;-62
2023/05/02 12:40:46;;;;;;;15.03;5.50;;;12.40;99.90;;;;;;5069081;28;20522;-63
2023/05/02 12:43:13;;;;;;;7.60;5.07;;;13.20;99.90;;;;;;5076772;28;20499;-63
2023/05/02 12:45:41;;;;;;;8.90;5.40;;;13.40;99.90;;;;;;5077000;28;20461;-61
2023/05/02 12:48:24;;;;;;;6.50;4.63;;;13.30;99.90;;;;;;5063193;28;20562;-63
2023/05/02 12:50:51;;;;;;;7.80;4.63;;;13.40;99.90;;;;;;5054205;28;20474;-63
2023/05/02 12:53:38;;;;;;;7.77;5.23;;;13.60;99.90;;;;;;5056881;28;20799;-63
2023/05/02 12:56:06;;;;;;;7.47;5.57;;;13.40;99.90;;;;;;5056035;28;20462;-62